createdAt,value
2018-04-30T00:02:40.959Z,32.37
2018-04-30T00:07:44.227Z,30.70
2018-04-30T00:12:47.619Z,30.50
2018-04-30T00:17:50.859Z,28.87
2018-04-30T00:22:54.135Z,29.10
2018-04-30T00:27:57.402Z,26.63
2018-04-30T00:33:00.679Z,24.63
2018-04-30T00:38:03.943Z,22.40
2018-04-30T00:43:07.963Z,21.73
2018-04-30T00:48:11.235Z,17.67
2018-04-30T00:53:14.487Z,22.70
2018-04-30T00:58:17.759Z,21.00
2018-04-30T01:03:21.776Z,20.40
2018-04-30T01:08:25.040Z,20.20
2018-04-30T01:13:28.335Z,17.13
2018-04-30T01:18:31.603Z,15.77
2018-04-30T01:23:35.646Z,16.47
2018-04-30T01:28:38.914Z,19.07
2018-04-30T01:33:42.191Z,17.67
2018-04-30T01:38:45.460Z,18.23
2018-04-30T01:43:49.494Z,17.27
2018-04-30T01:48:52.772Z,17.33
2018-04-30T01:53:56.051Z,21.77
2018-04-30T01:58:59.307Z,16.23
2018-04-30T02:04:03.339Z,15.07
2018-04-30T02:09:06.596Z,13.50
2018-04-30T02:14:09.927Z,26.30
2018-04-30T02:19:13.208Z,30.50
2018-04-30T02:24:16.479Z,19.67
2018-04-30T02:29:19.750Z,18.57
2018-04-30T02:34:23.919Z,38.67
2018-04-30T02:39:27.194Z,29.57
2018-04-30T02:44:30.451Z,18.27
2018-04-30T02:49:33.719Z,23.17
2018-04-30T02:54:36.972Z,35.07
2018-04-30T02:59:40.239Z,15.73
2018-04-30T03:04:44.271Z,16.77
2018-04-30T03:09:47.574Z,24.70
2018-04-30T03:14:50.791Z,18.33
2018-04-30T03:19:54.821Z,33.83
2018-04-30T03:24:58.076Z,51.20
2018-04-30T03:30:01.354Z,26.10
2018-04-30T03:35:04.637Z,49.50
2018-04-30T03:40:08.674Z,54.53
2018-04-30T03:45:11.931Z,44.50
2018-04-30T03:50:15.198Z,52.30
2018-04-30T03:55:18.462Z,53.10
2018-04-30T04:00:33.595Z,28.23
2018-04-30T04:05:48.670Z,37.00
2018-04-30T04:10:52.728Z,51.00
2018-04-30T04:15:55.969Z,33.57
2018-04-30T04:20:59.231Z,32.17
2018-04-30T04:26:02.488Z,40.50
2018-04-30T04:31:05.752Z,32.07
2018-04-30T04:36:09.016Z,34.00
2018-04-30T04:41:12.277Z,35.27
2018-04-30T04:46:15.574Z,28.50
2018-04-30T04:51:18.827Z,40.80
2018-04-30T04:56:22.088Z,47.17
2018-04-30T05:01:25.348Z,46.87
2018-04-30T05:06:28.602Z,39.30
2018-04-30T05:11:31.863Z,34.53
2018-04-30T05:16:35.927Z,33.00
2018-04-30T05:21:39.178Z,34.33
2018-04-30T05:26:43.255Z,28.97
2018-04-30T05:31:47.279Z,29.63
2018-04-30T05:36:50.547Z,23.27
2018-04-30T05:41:53.806Z,16.73
2018-04-30T05:46:57.083Z,18.43
2018-04-30T05:52:00.353Z,13.43
2018-04-30T05:57:03.614Z,15.27
2018-04-30T06:02:07.636Z,11.00
2018-04-30T06:07:11.660Z,10.90
2018-04-30T06:12:14.991Z,6.43
2018-04-30T06:17:18.199Z,7.23
2018-04-30T06:22:21.439Z,3.97
2018-04-30T06:27:24.691Z,3.57
2018-04-30T06:32:27.939Z,4.17
2018-04-30T06:37:31.187Z,3.70
2018-04-30T06:42:34.436Z,4.27
2018-04-30T06:47:37.687Z,4.57
2018-04-30T06:52:41.843Z,5.77
2018-04-30T06:57:45.088Z,2.87
2018-04-30T07:02:48.339Z,5.87
2018-04-30T07:07:51.587Z,3.50
2018-04-30T07:12:54.867Z,2.37
2018-04-30T07:17:58.130Z,3.57
2018-04-30T07:23:01.385Z,4.00
2018-04-30T07:28:04.630Z,1.70
2018-04-30T07:33:07.951Z,1.50
2018-04-30T07:38:11.147Z,5.87
2018-04-30T07:43:14.400Z,3.93
2018-04-30T07:48:17.670Z,3.20
2018-04-30T07:53:20.919Z,2.60
2018-04-30T07:58:24.163Z,1.70
2018-04-30T08:03:28.183Z,2.37
2018-04-30T08:08:31.427Z,2.60
2018-04-30T08:13:34.682Z,1.80
2018-04-30T08:18:37.991Z,3.17
2018-04-30T08:23:41.282Z,1.13
2018-04-30T08:28:44.542Z,3.00
2018-04-30T08:33:47.811Z,2.53
2018-04-30T08:38:51.079Z,1.87
2018-04-30T08:43:54.343Z,2.40
2018-04-30T08:48:57.610Z,2.37
2018-04-30T08:54:00.897Z,3.73
2018-04-30T08:59:04.880Z,1.57
2018-04-30T09:04:08.127Z,4.50
2018-04-30T09:09:11.387Z,2.37
2018-04-30T09:14:14.632Z,2.07
2018-04-30T09:19:17.910Z,3.40
2018-04-30T09:24:21.171Z,3.17
2018-04-30T09:29:24.443Z,1.30
2018-04-30T09:34:27.691Z,1.10
2018-04-30T09:39:30.951Z,3.20
2018-04-30T09:44:34.979Z,5.07
2018-04-30T09:49:38.234Z,2.70
2018-04-30T09:54:41.492Z,2.73
2018-04-30T09:59:45.512Z,1.47
2018-04-30T10:04:48.806Z,1.10
2018-04-30T10:09:52.075Z,1.70
2018-04-30T10:14:55.344Z,1.10
2018-04-30T10:19:59.419Z,1.40
2018-04-30T10:25:02.665Z,1.33
2018-04-30T10:30:05.956Z,1.80
2018-04-30T10:35:09.220Z,1.80
2018-04-30T10:40:12.490Z,1.63
2018-04-30T10:45:15.751Z,1.43
2018-04-30T10:50:19.034Z,2.70
2018-04-30T10:55:23.049Z,0.60
2018-04-30T11:00:27.081Z,6.40
2018-04-30T11:05:30.350Z,1.73
2018-04-30T11:10:33.601Z,2.13
2018-04-30T11:15:37.642Z,1.13
2018-04-30T11:20:40.999Z,2.70
2018-04-30T11:25:44.265Z,6.60
2018-04-30T11:30:47.530Z,2.37
2018-04-30T11:35:50.791Z,2.13
2018-04-30T11:40:54.808Z,1.80
2018-04-30T11:45:58.072Z,4.20
2018-04-30T11:51:01.348Z,1.87
2018-04-30T11:56:05.223Z,2.10
2018-04-30T12:01:09.257Z,2.97
2018-04-30T12:06:12.526Z,3.23
2018-04-30T12:11:15.785Z,1.77
2018-04-30T12:16:19.815Z,1.67
2018-04-30T12:21:23.119Z,1.73
2018-04-30T12:26:26.387Z,1.10
2018-04-30T12:31:29.655Z,1.23
2018-04-30T12:36:32.915Z,1.40
2018-04-30T12:41:36.178Z,1.47
2018-04-30T12:46:39.445Z,1.37
2018-04-30T12:51:42.719Z,1.07
2018-04-30T12:56:45.983Z,1.00
2018-04-30T13:01:49.245Z,0.27
2018-04-30T13:06:53.292Z,1.27
2018-04-30T13:11:56.549Z,1.23
2018-04-30T13:16:59.810Z,2.13
2018-04-30T13:22:03.144Z,0.60
2018-04-30T13:27:06.466Z,3.30
2018-04-30T13:32:09.735Z,1.23
2018-04-30T13:37:13.822Z,3.70
2018-04-30T13:42:17.038Z,1.27
2018-04-30T13:47:20.321Z,0.73
2018-04-30T13:52:23.608Z,3.53
2018-04-30T13:57:26.910Z,1.80
2018-04-30T14:02:30.172Z,2.10
2018-04-30T14:07:33.434Z,0.63
2018-04-30T14:12:36.700Z,2.53
2018-04-30T14:17:39.950Z,4.53
2018-04-30T14:22:43.212Z,0.40
2018-04-30T14:27:46.471Z,0.47
2018-04-30T14:32:49.749Z,4.57
2018-04-30T14:37:53.797Z,0.60
2018-04-30T14:42:57.804Z,1.80
2018-04-30T14:48:01.062Z,0.50
2018-04-30T14:53:04.308Z,6.50
2018-04-30T14:58:07.599Z,0.70
2018-04-30T15:03:10.875Z,0.90
2018-04-30T15:08:14.154Z,1.17
2018-04-30T15:13:17.411Z,1.77
2018-04-30T15:18:20.675Z,1.03
2018-04-30T15:23:23.972Z,0.60
2018-04-30T15:28:27.996Z,1.80
2018-04-30T15:33:32.023Z,3.17
2018-04-30T15:38:36.053Z,0.80
2018-04-30T15:43:40.084Z,2.33
2018-04-30T15:48:43.423Z,3.03
2018-04-30T15:53:46.612Z,0.87
2018-04-30T15:58:49.863Z,0.60
2018-04-30T16:03:53.123Z,1.20
2018-04-30T16:08:56.391Z,3.33
2018-04-30T16:13:59.656Z,0.63
2018-04-30T16:19:02.928Z,2.27
2018-04-30T16:24:06.196Z,5.50
2018-04-30T16:29:09.492Z,2.93
2018-04-30T16:34:14.299Z,1.23
2018-04-30T16:39:17.583Z,2.53
2018-04-30T16:44:20.859Z,0.90
2018-04-30T16:49:24.135Z,2.37
2018-04-30T16:54:27.418Z,0.47
2018-04-30T16:59:30.701Z,0.70
2018-04-30T17:04:34.057Z,0.57
2018-04-30T17:09:37.346Z,4.03
2018-04-30T17:14:40.697Z,0.67
2018-04-30T17:19:44.715Z,0.40
2018-04-30T17:24:47.998Z,0.50
2018-04-30T17:29:52.036Z,4.83
2018-04-30T17:34:56.077Z,1.93
2018-04-30T17:39:59.349Z,3.17
2018-04-30T17:45:02.615Z,1.33
2018-04-30T17:50:05.887Z,1.33
2018-04-30T17:55:09.159Z,1.80
2018-04-30T18:00:12.412Z,1.03
2018-04-30T18:05:15.671Z,0.30
2018-04-30T18:10:19.587Z,0.40
2018-04-30T18:15:22.862Z,2.93
2018-04-30T18:20:26.142Z,3.23
2018-04-30T18:25:29.448Z,0.83
2018-04-30T18:30:32.756Z,1.13
2018-04-30T18:35:36.064Z,2.40
2018-04-30T18:40:40.193Z,0.77
2018-04-30T18:45:44.224Z,2.27
2018-04-30T18:50:47.474Z,1.40
2018-04-30T18:55:50.743Z,3.33
2018-04-30T19:00:54.769Z,2.43
2018-04-30T19:05:58.030Z,0.20
2018-04-30T19:11:01.305Z,0.40
2018-04-30T19:16:04.543Z,0.50
2018-04-30T19:21:07.799Z,0.70
2018-04-30T19:26:11.200Z,1.73
2018-04-30T19:31:15.239Z,0.63
2018-04-30T19:36:18.519Z,1.07
2018-04-30T19:41:22.394Z,0.67
2018-04-30T19:46:25.670Z,5.27
2018-04-30T19:51:29.753Z,0.97
2018-04-30T19:56:33.103Z,1.07
2018-04-30T20:01:37.108Z,0.93
2018-04-30T20:06:40.366Z,0.50
2018-04-30T20:11:43.647Z,0.50
2018-04-30T20:16:46.891Z,1.40
2018-04-30T20:21:50.144Z,0.90
2018-04-30T20:26:53.453Z,1.83
2018-04-30T20:31:56.647Z,0.67
2018-04-30T20:36:59.909Z,0.50
2018-04-30T20:42:03.224Z,2.10
2018-04-30T20:47:06.539Z,4.07
2018-04-30T20:52:09.767Z,2.60
2018-04-30T20:57:13.015Z,1.03
2018-04-30T21:02:17.023Z,0.93
2018-04-30T21:07:20.267Z,1.27
2018-04-30T21:12:23.504Z,0.83
2018-04-30T21:17:26.810Z,1.20
2018-04-30T21:22:30.003Z,1.60
2018-04-30T21:27:34.119Z,1.53
2018-04-30T21:32:37.367Z,2.73
2018-04-30T21:37:40.604Z,2.40
2018-04-30T21:42:43.875Z,1.90
2018-04-30T21:47:47.123Z,1.27
2018-04-30T21:52:50.375Z,1.70
2018-04-30T21:57:53.620Z,2.77
2018-04-30T22:02:56.859Z,2.40
2018-04-30T22:08:00.882Z,0.90
2018-04-30T22:13:04.147Z,1.73
2018-04-30T22:18:07.392Z,1.77
2018-04-30T22:23:11.398Z,1.30
2018-04-30T22:28:14.649Z,3.03
2018-04-30T22:33:18.652Z,1.10
2018-04-30T22:38:21.902Z,1.60
2018-04-30T22:43:25.146Z,1.20
2018-04-30T22:48:28.390Z,2.00
2018-04-30T22:53:31.643Z,1.90
2018-04-30T22:58:34.885Z,1.30
2018-04-30T23:03:38.131Z,1.60
2018-04-30T23:08:41.367Z,1.20
2018-04-30T23:13:44.606Z,1.30
2018-04-30T23:18:49.442Z,1.43
2018-04-30T23:23:52.655Z,2.80
2018-04-30T23:28:55.958Z,1.30
2018-04-30T23:33:59.194Z,1.90
2018-04-30T23:39:02.441Z,1.87
2018-04-30T23:44:07.319Z,3.13
2018-04-30T23:49:11.307Z,2.73
2018-04-30T23:54:15.212Z,2.43
2018-04-30T23:59:18.582Z,2.77
